Time;durP1;ratioP1;P1;durP2;ratioP2;P2;SDS_P1;SDS_P2;PMS_P1;PMS_P2;Temp;Humidity;BMP_temperature;BMP_pressure;BME280_temperature;BME280_humidity;BME280_pressure;Samples;Min_cycle;Max_cycle;Signal;HPM_P1;HPM_P2
2023/05/05 00:03:42;;;;;;;7.15;3.55;;;;;;;14.95;54.79;100232.75;7738023;32;38734;-79
2023/05/05 00:07:59;;;;;;;6.12;3.60;;;;;;;15.26;53.80;100233.22;7736214;32;36723;-80
2023/05/05 00:12:15;;;;;;;7.07;3.30;;;;;;;15.23;53.44;100228.34;7737910;32;39965;-79
2023/05/05 00:16:31;;;;;;;7.55;3.33;;;;;;;15.07;53.57;100226.87;7737845;32;40833;-80
2023/05/05 00:20:48;;;;;;;7.25;3.90;;;;;;;15.10;53.34;100229.03;7737743;32;37898;-80
2023/05/05 00:25:05;;;;;;;6.60;3.60;;;;;;;15.00;53.82;100225.31;7737554;32;37948;-80
2023/05/05 00:29:22;;;;;;;5.80;2.92;;;;;;;15.00;53.68;100225.31;7737660;32;39315;-80
2023/05/05 00:33:38;;;;;;;6.72;3.67;;;;;;;14.96;53.45;100220.69;7723417;32;40833;-80
2023/05/05 00:37:55;;;;;;;5.37;3.30;;;;;;;14.89;53.42;100229.25;7710610;32;38811;-81
2023/05/05 00:42:11;;;;;;;6.28;3.35;;;;;;;14.81;53.47;100222.47;7710594;32;36718;-80
2023/05/05 00:46:29;;;;;;;10.20;4.00;;;;;;;14.72;53.67;100226.13;7710485;32;40166;-81
2023/05/05 00:50:45;;;;;;;5.50;3.08;;;;;;;14.92;53.18;100225.09;7710300;32;42232;-80
2023/05/05 00:55:03;;;;;;;6.37;3.10;;;;;;;14.89;53.03;100221.00;7709133;32;37967;-80
2023/05/05 00:59:19;;;;;;;5.00;2.90;;;;;;;14.83;53.18;100220.25;7710369;32;37021;-80
2023/05/05 01:03:37;;;;;;;6.85;3.42;;;;;;;14.83;52.99;100214.75;7719214;32;40006;-79
2023/05/05 01:08:21;;;;;;;6.20;3.12;;;;;;;14.69;53.36;100216.53;7709916;32;39932;-80
2023/05/05 01:13:01;;;;;;;5.45;3.15;;;;;;;14.52;53.61;100216.09;7708782;32;37968;-79
2023/05/05 01:17:20;;;;;;;7.55;3.10;;;;;;;14.32;54.01;100217.13;7708684;32;36965;-80
2023/05/05 01:22:02;;;;;;;6.93;3.10;;;;;;;14.12;54.30;100221.62;7716790;32;39544;-80
2023/05/05 01:26:47;;;;;;;5.12;3.15;;;;;;;13.85;54.72;100224.84;7735040;32;40014;-80
2023/05/05 01:31:12;;;;;;;4.10;2.83;;;;;;;13.92;54.76;100213.53;7734951;32;37410;-79
2023/05/05 01:35:31;;;;;;;5.20;3.05;;;;;;;13.95;54.58;100210.22;7736131;32;37120;-79
2023/05/05 01:39:52;;;;;;;5.80;3.17;;;;;;;14.08;54.03;100215.09;7728659;32;39333;-79
2023/05/05 01:44:12;;;;;;;6.18;2.97;;;;;;;13.79;54.89;100215.00;7709157;32;39657;-80
2023/05/05 01:48:29;;;;;;;5.60;3.40;;;;;;;13.91;54.74;100209.97;7708977;32;38127;-79
2023/05/05 01:52:46;;;;;;;6.45;3.30;;;;;;;13.75;55.21;100206.53;7707636;32;37831;-79
2023/05/05 01:57:04;;;;;;;8.38;3.30;;;;;;;13.73;55.47;100208.72;7709823;32;39417;-79
2023/05/05 02:01:25;;;;;;;5.60;3.22;;;;;;;13.58;55.34;100214.28;7711300;32;40010;-80
2023/05/05 02:05:42;;;;;;;5.57;3.37;;;;;;;13.45;55.56;100219.28;7711487;32;37773;-79
2023/05/05 02:10:01;;;;;;;5.32;3.10;;;;;;;13.36;55.90;100220.94;7712612;32;36754;-80
2023/05/05 02:14:19;;;;;;;6.18;3.22;;;;;;;13.46;55.45;100215.44;7711426;32;38313;-80
2023/05/05 02:18:36;;;;;;;5.85;3.10;;;;;;;13.36;56.22;100214.66;7711248;32;40195;-81
2023/05/05 02:22:53;;;;;;;7.72;3.22;;;;;;;13.22;56.29;100220.69;7711005;32;38061;-81
2023/05/05 02:27:10;;;;;;;8.05;3.30;;;;;;;13.20;56.15;100216.59;7717235;32;37595;-79
2023/05/05 02:31:27;;;;;;;7.43;3.62;;;;;;;13.27;57.77;100217.13;7714658;32;39432;-79
2023/05/05 02:35:45;;;;;;;5.20;3.10;;;;;;;13.16;56.17;100205.41;7712324;32;40144;-80
2023/05/05 02:40:07;;;;;;;6.80;3.10;;;;;;;13.12;55.55;100210.63;7711052;32;36940;-79
2023/05/05 02:44:25;;;;;;;6.37;3.33;;;;;;;12.99;55.83;100216.66;7712208;32;37149;-80
2023/05/05 02:48:45;;;;;;;5.47;3.45;;;;;;;13.29;55.12;100215.72;7712167;32;39445;-81
2023/05/05 02:53:01;;;;;;;5.30;3.20;;;;;;;13.13;55.54;100208.69;7711921;32;40022;-79
2023/05/05 02:57:19;;;;;;;5.25;3.20;;;;;;;12.91;56.14;100204.34;7717836;32;38648;-79
2023/05/05 03:02:11;;;;;;;9.50;3.47;;;;;;;13.09;55.52;100199.38;7737277;32;36244;-79
2023/05/05 03:06:28;;;;;;;6.62;3.45;;;;;;;13.20;55.35;100211.13;7719587;32;39460;-79
2023/05/05 03:11:03;;;;;;;4.32;2.97;;;;;;;13.03;55.57;100198.56;7736370;32;40078;-79
2023/05/05 03:15:25;;;;;;;5.35;3.28;;;;;;;12.94;55.91;100197.50;7737487;32;38840;-79
2023/05/05 03:19:43;;;;;;;4.15;2.90;;;;;;;12.78;56.28;100197.53;7738596;32;36959;-80
2023/05/05 03:23:59;;;;;;;6.18;3.40;;;;;;;12.84;56.07;100192.06;7737156;32;39263;-79
2023/05/05 03:28:16;;;;;;;5.10;3.25;;;;;;;12.68;56.49;100188.53;7723659;32;40815;-79
2023/05/05 03:32:33;;;;;;;4.60;2.95;;;;;;;12.53;56.12;100201.12;7711481;32;38516;-79
2023/05/05 03:36:49;;;;;;;6.37;3.20;;;;;;;12.66;55.93;100196.19;7711528;32;37109;-79
2023/05/05 03:41:05;;;;;;;5.90;3.40;;;;;;;12.50;56.28;100209.06;7711523;32;40068;-79
2023/05/05 03:45:22;;;;;;;9.98;3.78;;;;;;;12.77;55.49;100203.28;7711469;32;40757;-80
2023/05/05 03:49:38;;;;;;;7.07;3.65;;;;;;;12.77;55.54;100204.09;7711333;32;38787;-79
2023/05/05 03:53:54;;;;;;;5.95;3.58;;;;;;;12.48;56.53;100211.25;7711464;32;37108;-79
2023/05/05 03:58:10;;;;;;;6.62;3.42;;;;;;;12.37;56.84;100211.25;7720423;32;39411;-80
2023/05/05 04:02:27;;;;;;;5.70;3.50;;;;;;;12.43;56.99;100214.81;7711097;32;38630;-80
2023/05/05 04:06:43;;;;;;;8.82;3.70;;;;;;;12.24;56.89;100216.44;7711192;32;38797;-80
2023/05/05 04:11:01;;;;;;;8.73;3.50;;;;;;;12.41;56.90;100217.00;7711013;32;37926;-80
2023/05/05 04:15:17;;;;;;;6.75;3.50;;;;;;;12.42;57.58;100217.81;7711115;32;39408;-79
2023/05/05 04:19:33;;;;;;;8.50;3.78;;;;;;;12.20;58.67;100224.38;7710913;32;39942;-79
2023/05/05 04:23:50;;;;;;;6.03;3.50;;;;;;;12.36;58.84;100223.28;7710471;32;37911;-79
2023/05/05 04:28:06;;;;;;;6.85;3.95;;;;;;;12.40;59.38;100234.50;7724135;32;37022;-79
2023/05/05 04:32:22;;;;;;;4.78;3.70;;;;;;;12.42;59.48;100236.94;7737593;32;39587;-80
2023/05/05 04:36:39;;;;;;;6.43;3.83;;;;;;;12.38;59.90;100234.78;7737508;32;39659;-79
2023/05/05 04:40:55;;;;;;;5.87;3.60;;;;;;;12.45;59.83;100250.06;7737390;32;38063;-79
2023/05/05 04:45:12;;;;;;;9.00;4.20;;;;;;;12.63;59.42;100246.81;7723147;32;37880;-80
2023/05/05 04:49:31;;;;;;;8.30;4.00;;;;;;;12.67;59.49;100253.34;7737238;32;40071;-80
2023/05/05 04:53:47;;;;;;;5.82;3.72;;;;;;;12.80;59.18;100251.16;7736996;32;40440;-80
2023/05/05 04:58:04;;;;;;;6.50;3.25;;;;;;;12.67;59.79;100247.88;7730883;32;37937;-81
2023/05/05 05:02:20;;;;;;;6.12;3.12;;;;;;;12.82;59.25;100248.97;7733989;32;38024;-81
2023/05/05 05:06:37;;;;;;;5.60;3.37;;;;;;;12.87;59.11;100252.53;7732357;32;39778;-82
2023/05/05 05:10:53;;;;;;;6.10;3.22;;;;;;;13.05;58.84;100261.25;7735464;32;39701;-80
2023/05/05 05:15:11;;;;;;;7.12;3.85;;;;;;;13.04;58.71;100260.44;7729843;32;38065;-80
2023/05/05 05:19:28;;;;;;;5.55;3.85;;;;;;;13.10;59.12;100258.50;7718616;32;35976;-82
2023/05/05 05:23:44;;;;;;;5.85;3.53;;;;;;;13.32;58.77;100261.75;7730124;32;39307;-81
2023/05/05 05:28:01;;;;;;;5.47;3.08;;;;;;;13.65;57.97;100264.91;7721605;32;40643;-81
2023/05/05 05:32:25;;;;;;;7.12;4.12;;;;;;;13.37;59.35;100268.34;7710119;32;38015;-80
2023/05/05 05:36:42;;;;;;;6.68;3.65;;;;;;;13.59;58.33;100270.69;7713345;32;37868;-67
2023/05/05 05:40:58;;;;;;;14.50;5.75;;;;;;;13.86;60.33;100267.56;7713424;32;39370;-81
2023/05/05 05:45:14;;;;;;;14.82;5.30;;;;;;;13.77;56.90;100264.59;7725396;32;40194;-81
2023/05/05 05:49:32;;;;;;;7.87;4.25;;;;;;;14.03;57.37;100270.75;7737822;32;38641;-81
2023/05/05 05:53:48;;;;;;;9.68;4.03;;;;;;;13.85;57.26;100264.00;7739563;32;37280;-80
2023/05/05 05:58:05;;;;;;;13.60;5.00;;;;;;;13.84;57.25;100261.56;7721340;32;40577;-80
2023/05/05 06:02:26;;;;;;;11.52;4.53;;;;;;;14.17;56.62;100270.13;7712744;32;39829;-80
2023/05/05 06:06:42;;;;;;;8.65;4.32;;;;;;;13.81;56.85;100265.66;7730284;32;38719;-80
2023/05/05 06:10:59;;;;;;;7.37;3.37;;;;;;;14.02;56.74;100254.59;7729989;32;37110;-81
2023/05/05 06:15:15;;;;;;;7.25;3.58;;;;;;;13.75;57.33;100258.59;7738774;32;39395;-80
2023/05/05 06:19:33;;;;;;;6.37;3.10;;;;;;;14.39;56.42;100264.22;7739109;32;39921;-81
2023/05/05 06:23:49;;;;;;;7.22;3.60;;;;;;;14.19;55.88;100260.50;7739059;32;38187;-81
2023/05/05 06:28:06;;;;;;;9.98;3.42;;;;;;;14.41;55.02;100257.34;7739188;32;37570;-80
2023/05/05 06:32:22;;;;;;;11.35;4.32;;;;;;;14.78;53.40;100250.50;7739009;32;39254;-81
2023/05/05 06:36:38;;;;;;;14.07;4.72;;;;;;;15.26;52.49;100238.72;7735990;32;40212;-80
2023/05/05 06:40:57;;;;;;;7.85;3.42;;;;;;;15.33;52.47;100241.13;7732648;32;38792;-81
2023/05/05 06:45:13;;;;;;;5.78;3.25;;;;;;;15.30;52.18;100242.53;7722051;32;37319;-79
2023/05/05 06:49:30;;;;;;;16.48;5.10;;;;;;;15.60;51.79;100237.78;7723087;32;40078;-80
2023/05/05 06:53:46;;;;;;;14.38;3.55;;;;;;;15.80;51.63;100242.22;7711719;32;40099;-80
2023/05/05 06:58:02;;;;;;;18.80;5.28;;;;;;;15.88;49.68;100238.00;7725805;32;38104;-80
2023/05/05 07:02:18;;;;;;;11.20;3.65;;;;;;;16.30;50.37;100239.03;7732613;32;37913;-81
2023/05/05 07:06:35;;;;;;;8.70;4.50;;;;;;;16.65;49.53;100245.06;7712249;32;38976;-81
2023/05/05 07:10:51;;;;;;;8.02;3.40;;;;;;;17.05;44.93;100242.72;7718615;32;40533;-80
2023/05/05 07:15:08;;;;;;;7.50;3.47;;;;;;;17.49;45.51;100235.81;7710603;32;38836;-80
2023/05/05 07:19:42;;;;;;;5.55;2.45;;;;;;;17.85;42.98;100237.81;7721036;32;37038;-80
2023/05/05 07:24:00;;;;;;;5.80;3.12;;;;;;;18.12;41.26;100227.84;7727531;32;38775;-80
2023/05/05 07:28:16;;;;;;;3.97;2.53;;;;;;;17.90;41.91;100228.62;7737582;32;39989;-80
2023/05/05 07:32:33;;;;;;;4.90;2.45;;;;;;;18.59;40.70;100233.87;7729854;32;36428;-79
2023/05/05 07:36:49;;;;;;;5.18;2.72;;;;;;;18.95;40.51;100232.97;7719507;32;37828;-80
2023/05/05 07:41:06;;;;;;;4.45;2.80;;;;;;;19.13;40.55;100229.16;7729785;32;40362;-79
2023/05/05 07:45:22;;;;;;;3.72;2.42;;;;;;;19.69;40.20;100226.72;7734747;32;40770;-83
2023/05/05 07:49:38;;;;;;;5.50;2.87;;;;;;;20.02;40.02;100220.78;7734693;32;38040;-83
2023/05/05 07:53:55;;;;;;;6.20;3.10;;;;;;;20.02;36.39;100217.19;7724805;32;37170;-83
2023/05/05 07:58:11;;;;;;;4.78;2.75;;;;;;;19.94;37.51;100226.28;7710697;32;39427;-81
2023/05/05 08:02:27;;;;;;;5.55;3.03;;;;;;;20.00;35.65;100222.25;7711186;32;40977;-81
2023/05/05 08:06:44;;;;;;;5.90;2.80;;;;;;;20.18;36.67;100209.22;7713198;32;37964;-81
2023/05/05 08:11:01;;;;;;;6.87;3.35;;;;;;;20.58;37.00;100212.59;7710300;32;37126;-81
2023/05/05 08:15:17;;;;;;;9.63;4.43;;;;;;;20.60;37.04;100209.50;7710117;32;39315;-82
2023/05/05 08:19:33;;;;;;;7.22;3.70;;;;;;;20.36;38.42;100207.25;7710974;32;40099;-82
2023/05/05 08:23:49;;;;;;;9.73;3.80;;;;;;;20.55;38.21;100206.91;7710094;32;37946;-81
2023/05/05 08:28:06;;;;;;;10.75;3.22;;;;;;;19.88;39.34;100215.38;7707599;32;37522;-82
2023/05/05 08:32:22;;;;;;;7.05;3.10;;;;;;;20.69;38.80;100215.03;7707319;32;39729;-82
2023/05/05 08:36:38;;;;;;;5.05;2.62;;;;;;;20.47;35.63;100211.28;7707844;32;39955;-82
2023/05/05 08:40:55;;;;;;;6.60;2.78;;;;;;;19.63;37.26;100218.91;7709669;32;37908;-82
2023/05/05 08:45:11;;;;;;;6.40;2.83;;;;;;;20.18;38.85;100207.28;7710612;32;37194;-82
2023/05/05 08:49:39;;;;;;;5.53;3.10;;;;;;;20.16;39.39;100212.31;7718513;32;40045;-81
2023/05/05 08:53:59;;;;;;;6.72;3.22;;;;;;;20.52;36.66;100205.59;7729084;32;39917;-80
2023/05/05 08:58:19;;;;;;;5.70;3.10;;;;;;;20.49;37.16;100197.13;7737120;32;38924;-80
2023/05/05 09:02:35;;;;;;;5.65;3.00;;;;;;;20.29;37.28;100191.12;7731028;32;37611;-82
2023/05/05 09:06:52;;;;;;;5.37;2.62;;;;;;;20.59;38.69;100196.78;7736904;32;39330;-81
2023/05/05 09:11:08;;;;;;;7.95;2.50;;;;;;;21.19;38.38;100194.97;7739867;32;40817;-80
2023/05/05 09:15:27;;;;;;;6.53;3.25;;;;;;;21.36;35.06;100186.56;7730583;32;38004;-81
2023/05/05 09:20:03;;;;;;;4.60;2.30;;;;;;;21.28;35.05;100186.63;7720736;32;36101;-83
2023/05/05 09:24:19;;;;;;;5.80;2.62;;;;;;;21.83;34.44;100182.06;7731565;32;38430;-81
2023/05/05 09:28:36;;;;;;;5.62;2.80;;;;;;;21.38;33.79;100184.25;7738824;32;39892;-81
2023/05/05 09:32:54;;;;;;;4.72;2.70;;;;;;;21.62;34.77;100177.31;7739450;32;38742;-80
2023/05/05 09:37:10;;;;;;;5.57;2.60;;;;;;;21.45;34.06;100171.84;7714892;32;37216;-71
2023/05/05 09:41:37;;;;;;;7.22;2.75;;;;;;;21.93;34.52;100182.44;7736020;32;40504;-70
2023/05/05 09:46:08;;;;;;;4.03;2.20;;;;;;;22.37;32.02;100173.78;7739143;32;40849;-71
2023/05/05 09:50:24;;;;;;;5.57;2.17;;;;;;;22.94;33.10;100163.81;7728936;32;37802;-72
2023/05/05 09:54:42;;;;;;;4.32;2.25;;;;;;;22.62;32.62;100162.72;7739407;32;36749;-71
2023/05/05 09:59:08;;;;;;;7.40;2.60;;;;;;;22.75;31.22;100175.50;7739355;32;39431;-71
2023/05/05 10:03:25;;;;;;;3.60;2.28;;;;;;;23.30;31.48;100164.19;7722080;32;40019;-73
2023/05/05 10:07:46;;;;;;;4.03;2.30;;;;;;;22.94;31.04;100168.53;7712447;32;38027;-73
2023/05/05 10:12:03;;;;;;;3.08;2.12;;;;;;;22.80;33.52;100166.94;7712524;32;37179;-73
2023/05/05 10:16:20;;;;;;;8.02;2.28;;;;;;;23.34;30.02;100165.13;7729819;32;40046;-72
2023/05/05 10:20:37;;;;;;;3.90;2.10;;;;;;;23.40;30.39;100153.41;7737558;32;40944;-68
2023/05/05 10:25:11;;;;;;;5.05;2.33;;;;;;;23.50;28.78;100140.97;7738745;32;38822;-69
2023/05/05 10:29:46;;;;;;;2.83;2.00;;;;;;;23.33;29.11;100142.03;7737625;32;37135;-68
2023/05/05 10:34:03;;;;;;;5.40;2.25;;;;;;;23.22;29.47;100147.28;7739002;32;40041;-69
2023/05/05 10:38:21;;;;;;;2.30;2.03;;;;;;;23.27;29.55;100143.44;7735788;32;40781;-68
2023/05/05 10:42:41;;;;;;;4.28;2.35;;;;;;;23.45;30.42;100121.75;7716958;32;37644;-82
2023/05/05 10:46:58;;;;;;;5.78;2.20;;;;;;;24.10;31.20;100118.09;7711992;32;37053;-79
2023/05/05 10:51:32;;;;;;;4.60;2.17;;;;;;;23.73;29.32;100115.41;7712179;32;39286;-79
2023/05/05 10:56:10;;;;;;;3.95;2.12;;;;;;;23.25;30.24;100102.09;7715817;32;40073;-79
2023/05/05 11:00:39;;;;;;;7.12;2.22;;;;;;;24.13;27.45;100095.09;7728580;32;38127;-78
2023/05/05 11:05:21;;;;;;;4.20;2.20;;;;;;;24.65;29.91;100094.09;7721774;32;36875;-79
2023/05/05 11:09:53;;;;;;;4.03;2.30;;;;;;;24.46;29.41;100085.63;7710593;32;39308;-76
2023/05/05 11:14:21;;;;;;;9.25;2.33;;;;;;;24.77;28.91;100090.41;7710608;32;40814;-75
2023/05/05 11:18:38;;;;;;;3.78;2.03;;;;;;;24.99;28.04;100080.59;7729406;32;38892;-76
2023/05/05 11:23:01;;;;;;;5.43;2.35;;;;;;;25.40;28.93;100081.13;7730517;32;37051;-75
2023/05/05 11:27:18;;;;;;;;;;;;;;;25.91;26.99;100077.41;7713361;32;39326;-75
2023/05/05 11:31:34;;;;;;;3.95;2.55;;;;;;;25.08;27.38;100072.03;7711756;32;40276;-74
2023/05/05 11:36:01;;;;;;;3.60;2.10;;;;;;;25.01;28.01;100064.28;7733833;32;38565;-74
2023/05/05 11:40:28;;;;;;;6.07;2.55;;;;;;;25.16;26.86;100050.66;7695315;32;36795;-70
2023/05/05 11:44:45;;;;;;;5.80;2.58;;;;;;;24.85;27.43;100055.97;7715169;32;39585;-77
2023/05/05 11:49:01;;;;;;;4.28;2.35;;;;;;;25.64;26.81;100042.94;7724874;32;40536;-70
2023/05/05 11:53:19;;;;;;;3.97;2.25;;;;;;;26.34;28.35;100044.69;7723989;32;40212;-78
2023/05/05 11:57:35;;;;;;;3.65;2.03;;;;;;;26.50;26.40;100043.75;7734837;32;36739;-79
2023/05/05 12:01:51;;;;;;;5.32;2.20;;;;;;;26.84;25.12;100036.34;7737048;32;39352;-80
2023/05/05 12:06:08;;;;;;;4.03;1.95;;;;;;;26.11;24.36;100033.50;7737667;32;40813;-80
2023/05/05 12:10:24;;;;;;;6.90;2.30;;;;;;;26.73;25.63;100025.00;7718136;32;38720;-81
2023/05/05 12:14:51;;;;;;;4.60;2.58;;;;;;;25.45;27.22;100027.81;7710945;32;38283;-80
2023/05/05 12:19:10;;;;;;;6.90;2.33;;;;;;;26.22;25.46;100017.75;7721412;32;40988;-80
2023/05/05 12:23:28;;;;;;;4.28;2.10;;;;;;;26.81;25.93;100017.50;7710362;32;41209;-81
2023/05/05 12:27:54;;;;;;;6.15;2.92;;;;;;;25.94;25.69;100019.97;7710736;32;37645;-80
2023/05/05 12:32:22;;;;;;;6.43;2.90;;;;;;;26.19;25.90;100012.88;7729188;32;38309;-79
2023/05/05 12:36:38;;;;;;;6.40;2.95;;;;;;;26.87;25.06;100007.63;7736968;32;40473;-80
2023/05/05 12:40:55;;;;;;;4.93;2.78;;;;;;;25.03;27.99;100011.75;7736694;32;39762;-80
2023/05/05 12:45:18;;;;;;;4.15;2.72;;;;;;;25.70;26.92;100002.41;7737196;32;38778;-80
2023/05/05 12:49:50;;;;;;;8.10;2.80;;;;;;;26.49;27.70;100006.63;7737120;32;36790;-80
2023/05/05 12:54:09;;;;;;;7.83;2.60;;;;;;;26.92;26.36;99998.91;7737116;32;39803;-80
2023/05/05 12:58:26;;;;;;;5.45;2.53;;;;;;;27.73;25.71;99996.72;7735767;32;39951;-80
2023/05/05 13:02:43;;;;;;;4.75;2.30;;;;;;;28.32;26.15;99987.69;7736882;32;37647;-79
2023/05/05 13:07:09;;;;;;;5.87;2.37;;;;;;;28.58;23.00;99983.91;7735675;32;36991;-80
2023/05/05 13:11:26;;;;;;;7.30;2.80;;;;;;;28.61;23.86;99971.94;7736726;32;39435;-80
2023/05/05 13:15:42;;;;;;;6.65;2.78;;;;;;;28.66;21.95;99968.75;7736591;32;40880;-81
2023/05/05 13:19:58;;;;;;;5.82;2.28;;;;;;;28.99;21.58;99964.13;7727052;32;306414;-81
2023/05/05 13:24:15;;;;;;;4.10;2.50;;;;;;;29.66;23.18;99951.56;7736281;32;36771;-80
2023/05/05 13:28:34;;;;;;;4.30;2.30;;;;;;;29.62;22.16;99955.59;7736367;32;38767;-80
2023/05/05 13:32:51;;;;;;;6.47;2.40;;;;;;;29.57;21.01;99949.13;7736256;32;39780;-80
2023/05/05 13:37:07;;;;;;;2.85;2.22;;;;;;;29.45;22.17;99949.50;7735951;32;37656;-80
2023/05/05 13:41:23;;;;;;;3.22;2.40;;;;;;;28.71;22.54;99943.16;7735926;32;37245;-80
2023/05/05 13:45:40;;;;;;;3.75;2.00;;;;;;;28.21;22.13;99937.16;7734656;32;40060;-80
2023/05/05 13:49:56;;;;;;;4.32;1.98;;;;;;;28.52;22.09;99935.00;7735701;32;39836;-81
2023/05/05 13:54:13;;;;;;;6.32;2.28;;;;;;;28.70;22.68;99927.53;7736857;32;37557;-68
2023/05/05 13:58:29;;;;;;;4.50;2.53;;;;;;;28.55;22.93;99940.66;7739332;32;37657;-68
2023/05/05 14:02:46;;;;;;;9.52;3.35;;;;;;;27.66;25.02;99940.66;7739252;32;40114;-80
2023/05/05 14:07:03;;;;;;;6.35;2.50;;;;;;;27.49;25.01;99937.28;7739479;32;39695;-80
2023/05/05 14:11:20;;;;;;;4.05;2.35;;;;;;;27.68;24.19;99933.47;7739172;32;38052;-81
2023/05/05 14:15:36;;;;;;;6.25;2.20;;;;;;;27.88;23.49;99927.66;7739066;32;37933;-81
2023/05/05 14:19:52;;;;;;;5.40;2.47;;;;;;;27.99;24.08;99931.38;7739124;32;40158;-81
2023/05/05 14:24:09;;;;;;;3.87;2.35;;;;;;;26.95;24.93;99928.19;7738931;32;39766;-79
2023/05/05 14:28:25;;;;;;;3.95;2.25;;;;;;;26.94;25.13;99923.81;7738967;32;38475;-80
2023/05/05 14:32:41;;;;;;;4.60;2.30;;;;;;;27.11;25.40;99918.81;7736616;32;37099;-81
2023/05/05 14:36:58;;;;;;;3.60;2.22;;;;;;;27.41;25.46;99918.78;7736277;32;38920;-80
2023/05/05 14:41:14;;;;;;;3.53;2.30;;;;;;;27.87;25.59;99914.81;7737028;32;39927;-80
2023/05/05 14:45:31;;;;;;;3.97;2.12;;;;;;;28.01;25.46;99917.81;7737052;32;38142;-81
2023/05/05 14:49:47;;;;;;;5.20;2.15;;;;;;;27.83;22.95;99909.19;7736862;32;37127;-80
2023/05/05 14:54:04;;;;;;;7.65;2.15;;;;;;;27.91;23.59;99913.72;7736592;32;38221;-80
2023/05/05 14:58:32;;;;;;;2.55;1.90;;;;;;;27.84;23.07;99913.62;7736482;32;40738;-80
2023/05/05 15:02:48;;;;;;;5.32;2.00;;;;;;;27.40;23.93;99917.16;7734425;32;38010;-81
2023/05/05 15:07:04;;;;;;;3.05;2.03;;;;;;;27.91;23.52;99910.91;7736668;32;38395;-80
2023/05/05 15:11:21;;;;;;;4.80;2.10;;;;;;;28.01;22.97;99901.00;7736807;32;39884;-81
2023/05/05 15:15:37;;;;;;;3.42;2.03;;;;;;;28.22;23.75;99899.56;7737163;32;39900;-80
2023/05/05 15:19:54;;;;;;;4.03;2.05;;;;;;;27.91;22.67;99896.06;7736163;32;37965;-80
2023/05/05 15:24:11;;;;;;;5.05;2.20;;;;;;;28.50;23.28;99898.12;7736388;32;37617;-81
2023/05/05 15:28:27;;;;;;;6.25;2.17;;;;;;;28.28;22.13;99897.97;7736612;32;39220;-81
2023/05/05 15:32:43;;;;;;;4.90;2.10;;;;;;;28.41;22.01;99890.88;7736001;32;40965;-80
2023/05/05 15:37:00;;;;;;;6.10;1.83;;;;;;;27.81;22.30;99899.59;7732362;32;38007;-80
2023/05/05 15:41:16;;;;;;;3.20;1.92;;;;;;;27.39;22.45;99898.78;7735020;32;37014;-80
2023/05/05 15:45:32;;;;;;;7.50;2.00;;;;;;;27.63;23.65;99896.59;7735989;32;39277;-81
2023/05/05 15:49:50;;;;;;;4.65;2.20;;;;;;;27.54;22.95;99899.72;7736244;32;39500;-81
2023/05/05 15:54:07;;;;;;;2.60;1.98;;;;;;;27.36;23.78;99893.94;7734563;32;37866;-81
2023/05/05 15:58:23;;;;;;;3.62;1.92;;;;;;;27.27;24.26;99891.44;7734389;32;37843;-83
2023/05/05 16:02:40;;;;;;;2.97;2.00;;;;;;;27.13;23.96;99889.28;7734508;32;39605;-85
2023/05/05 16:06:56;;;;;;;3.42;1.90;;;;;;;26.91;25.07;99887.41;7733423;32;39878;-85
2023/05/05 16:11:13;;;;;;;2.87;2.15;;;;;;;26.69;23.93;99886.31;7732426;32;38451;-85
2023/05/05 16:15:30;;;;;;;4.47;2.30;;;;;;;27.12;24.42;99882.06;7732655;32;37824;-84
2023/05/05 16:19:47;;;;;;;4.95;2.30;;;;;;;27.47;24.18;99874.47;7731315;32;40550;-83
2023/05/05 16:24:03;;;;;;;3.15;2.12;;;;;;;27.04;23.84;99871.16;7732294;32;39573;-83
2023/05/05 16:28:19;;;;;;;3.97;1.92;;;;;;;26.83;24.02;99875.31;7729471;32;37879;-83
2023/05/05 16:32:36;;;;;;;5.40;2.47;;;;;;;26.72;23.54;99872.37;7732722;32;37006;-83
2023/05/05 16:36:52;;;;;;;5.72;2.92;;;;;;;26.34;24.75;99870.63;7734922;32;39393;-82
2023/05/05 16:41:10;;;;;;;4.15;2.12;;;;;;;26.87;23.71;99867.78;7732611;32;39954;-83
2023/05/05 16:45:26;;;;;;;3.35;2.30;;;;;;;26.50;24.65;99870.44;7735561;32;37849;-82
2023/05/05 16:49:42;;;;;;;6.40;2.53;;;;;;;26.09;24.42;99876.63;7734676;32;37122;-83
2023/05/05 16:53:59;;;;;;;6.28;2.30;;;;;;;26.10;24.91;99869.88;7732586;32;39436;-82
2023/05/05 16:58:15;;;;;;;4.20;1.87;;;;;;;26.36;24.19;99865.47;7736216;32;39645;-82
2023/05/05 17:02:31;;;;;;;7.12;2.35;;;;;;;26.14;24.43;99876.31;7736978;32;38074;-83
2023/05/05 17:06:48;;;;;;;4.20;2.33;;;;;;;26.53;23.70;99873.28;7733600;32;37789;-70
2023/05/05 17:11:04;;;;;;;10.20;2.20;;;;;;;26.45;24.13;99868.78;7733611;32;39794;-69
2023/05/05 17:15:21;;;;;;;3.33;2.28;;;;;;;26.52;22.81;99874.47;7732538;32;41219;-82
2023/05/05 17:19:37;;;;;;;5.65;2.22;;;;;;;26.48;24.55;99862.44;7709290;32;37542;-82
2023/05/05 17:23:53;;;;;;;5.07;1.95;;;;;;;26.23;24.08;99874.06;7724665;32;37183;-82
2023/05/05 17:28:10;;;;;;;6.15;2.03;;;;;;;26.17;24.80;99869.97;7727474;32;39245;-82
2023/05/05 17:32:36;;;;;;;4.45;2.33;;;;;;;26.15;24.32;99872.34;7722865;32;40747;-81
2023/05/05 17:37:01;;;;;;;5.90;3.00;;;;;;;25.95;25.67;99876.41;7728536;32;38786;-77
2023/05/05 17:41:18;;;;;;;7.05;3.00;;;;;;;25.71;27.03;99877.56;7712650;32;37793;-78
2023/05/05 17:45:35;;;;;;;9.75;3.17;;;;;;;25.16;28.30;99878.53;7712562;32;39345;-78
2023/05/05 17:49:52;;;;;;;12.43;3.00;;;;;;;24.59;30.99;99886.50;7720302;32;39799;-77
2023/05/05 17:54:09;;;;;;;6.18;3.35;;;;;;;24.09;31.67;99885.31;7739589;32;38421;-78
2023/05/05 17:58:25;;;;;;;16.83;4.22;;;;;;;23.85;32.60;99889.91;7739454;32;37620;-78
2023/05/05 18:02:42;;;;;;;12.57;3.83;;;;;;;23.42;34.09;99888.75;7737428;32;40078;-77
2023/05/05 18:06:58;;;;;;;8.05;3.70;;;;;;;23.19;34.74;99902.44;7716108;32;40968;-78
2023/05/05 18:11:15;;;;;;;8.50;3.72;;;;;;;23.03;34.84;99902.37;7726533;32;37696;-77
2023/05/05 18:15:31;;;;;;;7.95;3.55;;;;;;;22.51;36.70;99906.78;7734694;32;37774;-77
2023/05/05 18:19:48;;;;;;;8.57;3.78;;;;;;;22.49;36.24;99914.63;7726871;32;38760;-77
2023/05/05 18:24:10;;;;;;;7.25;3.70;;;;;;;22.33;36.29;99911.75;7736278;32;39897;-78
2023/05/05 18:28:36;;;;;;;7.30;3.40;;;;;;;22.15;36.03;99918.69;7713478;32;38413;-77
2023/05/05 18:32:52;;;;;;;4.10;2.72;;;;;;;21.87;37.06;99928.50;7722515;32;37118;-76
2023/05/05 18:37:09;;;;;;;6.72;3.25;;;;;;;21.82;37.55;99925.13;7736329;32;39570;-81
2023/05/05 18:41:25;;;;;;;5.97;3.05;;;;;;;21.64;37.66;99930.88;7726065;32;39992;-80
2023/05/05 18:45:42;;;;;;;5.87;3.08;;;;;;;21.25;38.57;99935.81;7737687;32;37888;-79
2023/05/05 18:49:58;;;;;;;5.15;3.00;;;;;;;21.02;38.78;99935.34;7733094;32;37874;-81
2023/05/05 18:54:15;;;;;;;4.85;2.83;;;;;;;20.84;39.39;99939.41;7733634;32;39333;-79
2023/05/05 18:58:31;;;;;;;8.20;3.62;;;;;;;20.73;39.10;99942.59;7734758;32;39600;-82
2023/05/05 19:02:47;;;;;;;7.72;3.05;;;;;;;20.51;40.07;99949.22;7734512;32;37510;-80
2023/05/05 19:07:04;;;;;;;6.65;3.30;;;;;;;20.25;40.95;99957.66;7733090;32;37770;-80
2023/05/05 19:11:21;;;;;;;8.70;3.78;;;;;;;20.11;41.70;99955.09;7730766;32;40209;-81
2023/05/05 19:15:40;;;;;;;5.50;3.15;;;;;;;20.03;42.07;99947.66;7721942;32;40738;-79
2023/05/05 19:19:59;;;;;;;8.57;3.20;;;;;;;19.92;42.19;99957.44;7725195;32;38802;-79
2023/05/05 19:24:16;;;;;;;4.78;2.83;;;;;;;19.63;41.40;99950.66;7733873;32;36467;-80
2023/05/05 19:28:36;;;;;;;6.55;3.37;;;;;;;19.44;41.16;99954.59;7733356;32;39655;-78
2023/05/05 19:32:52;;;;;;;11.15;3.42;;;;;;;19.27;42.05;99955.44;7736657;32;40835;-78
2023/05/05 19:37:09;;;;;;;9.40;3.50;;;;;;;19.25;42.40;99956.91;7730910;32;36198;-79
2023/05/05 19:41:25;;;;;;;8.77;3.58;;;;;;;19.23;42.56;99961.91;7733760;32;37048;-81
2023/05/05 19:45:41;;;;;;;8.30;3.00;;;;;;;19.02;43.12;99957.03;7731979;32;39396;-80
2023/05/05 19:49:58;;;;;;;4.18;2.75;;;;;;;18.81;43.67;99953.28;7713236;32;39882;-80
2023/05/05 19:54:15;;;;;;;4.80;3.03;;;;;;;18.64;43.95;99960.38;7731978;32;38164;-82
2023/05/05 19:58:52;;;;;;;5.75;3.20;;;;;;;18.21;44.71;99952.78;7717559;32;37893;-82
2023/05/05 20:03:09;;;;;;;8.10;3.33;;;;;;;18.08;44.80;99950.97;7724753;32;38969;-81
2023/05/05 20:07:26;;;;;;;5.75;3.17;;;;;;;18.12;44.68;99955.50;7712752;32;40829;-78